Nearby METAR Reports

 

KPBH - Phillips, Wisconsin, USA
Distance from station: SE 13mi, 21km
Updated: 08/18/2019 8:55pm
Partly cloudy
Partly cloudy
 Wind from calm
Wind: Calm
Temperature: 57°F , 14°C
Dew Point: 55°F , 13°C
Humidity: 94%
Barometer: 29.87 inHg , 1011.5 hPa
Clouds: Partly cloudy
Visibility: 10 miles , 16 km
Cloud details: Partly cloudy 5500 ft
2019/08/19 01:55 KPBH 190155Z AUTO 00000KT 10SM SCT055 14/13 A2987 RMK AO2 T01430126
KRCX - Ladysmith/Rusk, Wisconsin, USA
Distance from station: SW 29mi, 46km
Updated: 08/18/2019 8:55pm
Clear
Clear
 Wind from W
Wind: W 5 mph , 7 km/h
Temperature: 63°F , 17°C
Dew Point: 54°F , 12°C
Humidity: 73%
Barometer: 29.90 inHg , 1012.5 hPa
Clouds: Clear
Visibility: 10 miles , 16 km
2019/08/19 01:55 KRCX 190155Z AUTO 27004KT 10SM CLR 17/12 A2990 RMK AO2 T01680123
 
KD25 - Manitowish Water, Wisconsin, USA
Distance from station: ENE 41mi, 66km
Updated: 08/18/2019 8:55pm
Mist, Clear
Mist, Clear
 Wind from calm
Wind: Calm
Temperature: 54°F , 12°C
Dew Point: 54°F , 12°C
Humidity: 100%
Barometer: 29.86 inHg , 1011.2 hPa
Summary: Mist
Clouds: Clear
Visibility: 5 miles , 8 km
2019/08/19 01:55 KD25 190155Z AUTO 00000KT 5SM BR CLR 12/12 A2986 RMK AO2 T01150115
KHYR - Hayward, Wisconsin, USA
Distance from station: WNW 42mi, 68km
Updated: 08/18/2019 8:53pm
Clear
Clear
 Wind from calm
Wind: Calm
Temperature: 55°F , 13°C
Dew Point: 52°F , 11°C
Humidity: 88%
Barometer: 29.87 inHg , 1011.5 hPa
Clouds: Clear
Visibility: 10 miles , 16 km
2019/08/19 01:53 KHYR 190153Z AUTO 00000KT 10SM CLR 13/11 A2987 RMK AO2 SLP117 T01330111
 
KARV - Minocqua/Woodruf, Wisconsin, USA
Distance from station: E 44mi, 71km
Updated: 08/18/2019 8:55pm
Clear
Clear
 Wind from calm
Wind: Calm
Temperature: 59°F , 15°C
Dew Point: 57°F , 14°C
Humidity: 94%
Barometer: 29.87 inHg , 1011.5 hPa
Clouds: Clear
Visibility: 10 miles , 16 km
2019/08/19 01:55 KARV 190155Z AUTO 00000KT 10SM CLR 15/14 A2987 RMK AO2 T01520139
KTKV - Tomahawk Regnl, Wisconsin, USA
Distance from station: ESE 46mi, 74km
Updated: 08/18/2019 8:55pm
Clear
Clear
 Wind from calm
Wind: Calm
Temperature: 55°F , 13°C
Dew Point: 54°F , 12°C
Humidity: 94%
Barometer: 29.88 inHg , 1011.9 hPa
Clouds: Clear
Visibility: 10 miles , 16 km
2019/08/19 01:55 KTKV 190155Z AUTO 00000KT 10SM CLR 13/12 A2988 RMK AO2 T01260118